sensor_id;sensor_type;location;lat;lon;timestamp;temperature;humidity
22850;DHT22;11591;44.792;10.358;2023-05-07T00:00:01;21.40;99.90
22850;DHT22;11591;44.792;10.358;2023-05-07T00:02:28;21.40;99.90
22850;DHT22;11591;44.792;10.358;2023-05-07T00:04:54;21.40;99.90
22850;DHT22;11591;44.792;10.358;2023-05-07T00:07:20;21.30;99.90
22850;DHT22;11591;44.792;10.358;2023-05-07T00:09:46;21.30;99.90
22850;DHT22;11591;44.792;10.358;2023-05-07T00:12:12;21.20;99.90
22850;DHT22;11591;44.792;10.358;2023-05-07T00:14:38;21.00;99.90
22850;DHT22;11591;44.792;10.358;2023-05-07T00:17:03;21.00;99.90
22850;DHT22;11591;44.792;10.358;2023-05-07T00:19:29;20.90;99.90
22850;DHT22;11591;44.792;10.358;2023-05-07T00:21:55;20.90;99.90
22850;DHT22;11591;44.792;10.358;2023-05-07T00:24:22;20.90;99.90
22850;DHT22;11591;44.792;10.358;2023-05-07T00:26:47;20.80;99.90
22850;DHT22;11591;44.792;10.358;2023-05-07T00:29:13;20.80;99.90
22850;DHT22;11591;44.792;10.358;2023-05-07T00:31:39;20.80;99.90
22850;DHT22;11591;44.792;10.358;2023-05-07T00:34:05;20.80;99.90
22850;DHT22;11591;44.792;10.358;2023-05-07T00:36:31;20.80;99.90
22850;DHT22;11591;44.792;10.358;2023-05-07T00:39:00;20.80;99.90
22850;DHT22;11591;44.792;10.358;2023-05-07T00:41:27;20.70;99.90
22850;DHT22;11591;44.792;10.358;2023-05-07T00:43:53;20.50;99.90
22850;DHT22;11591;44.792;10.358;2023-05-07T00:46:20;20.60;99.90
22850;DHT22;11591;44.792;10.358;2023-05-07T00:48:47;20.70;99.90
22850;DHT22;11591;44.792;10.358;2023-05-07T00:51:13;20.70;99.90
22850;DHT22;11591;44.792;10.358;2023-05-07T00:53:39;20.70;99.90
22850;DHT22;11591;44.792;10.358;2023-05-07T00:56:06;20.70;99.90
22850;DHT22;11591;44.792;10.358;2023-05-07T00:58:33;20.60;99.90
22850;DHT22;11591;44.792;10.358;2023-05-07T01:00:59;20.60;99.90
22850;DHT22;11591;44.792;10.358;2023-05-07T01:03:25;20.60;99.90
22850;DHT22;11591;44.792;10.358;2023-05-07T01:05:52;20.60;99.90
22850;DHT22;11591;44.792;10.358;2023-05-07T01:08:18;20.60;99.90
22850;DHT22;11591;44.792;10.358;2023-05-07T01:10:45;20.60;99.90
22850;DHT22;11591;44.792;10.358;2023-05-07T01:13:12;20.60;99.90
22850;DHT22;11591;44.792;10.358;2023-05-07T01:15:40;20.60;99.90
22850;DHT22;11591;44.792;10.358;2023-05-07T01:18:07;20.60;99.90
22850;DHT22;11591;44.792;10.358;2023-05-07T01:20:34;20.50;99.90
22850;DHT22;11591;44.792;10.358;2023-05-07T01:23:01;20.60;99.90
22850;DHT22;11591;44.792;10.358;2023-05-07T01:25:27;20.60;99.90
22850;DHT22;11591;44.792;10.358;2023-05-07T01:27:56;20.60;99.90
22850;DHT22;11591;44.792;10.358;2023-05-07T01:30:27;20.60;99.90
22850;DHT22;11591;44.792;10.358;2023-05-07T01:35:29;20.50;99.90
22850;DHT22;11591;44.792;10.358;2023-05-07T01:37:56;20.50;99.90
22850;DHT22;11591;44.792;10.358;2023-05-07T01:40:24;20.60;99.90
22850;DHT22;11591;44.792;10.358;2023-05-07T01:42:50;20.60;99.90
22850;DHT22;11591;44.792;10.358;2023-05-07T01:45:16;20.50;99.90
22850;DHT22;11591;44.792;10.358;2023-05-07T01:47:42;20.50;99.90
22850;DHT22;11591;44.792;10.358;2023-05-07T01:50:09;20.40;99.90
22850;DHT22;11591;44.792;10.358;2023-05-07T01:52:37;20.40;99.90
22850;DHT22;11591;44.792;10.358;2023-05-07T01:55:05;20.40;99.90
22850;DHT22;11591;44.792;10.358;2023-05-07T01:57:31;20.30;99.90
22850;DHT22;11591;44.792;10.358;2023-05-07T01:59:57;20.20;99.90
22850;DHT22;11591;44.792;10.358;2023-05-07T02:02:23;20.10;99.90
22850;DHT22;11591;44.792;10.358;2023-05-07T02:04:49;20.00;99.90
22850;DHT22;11591;44.792;10.358;2023-05-07T02:07:16;20.10;99.90
22850;DHT22;11591;44.792;10.358;2023-05-07T02:09:42;20.10;99.90
22850;DHT22;11591;44.792;10.358;2023-05-07T02:12:08;20.10;99.90
22850;DHT22;11591;44.792;10.358;2023-05-07T02:14:34;20.00;99.90
22850;DHT22;11591;44.792;10.358;2023-05-07T02:16:59;19.90;99.90
22850;DHT22;11591;44.792;10.358;2023-05-07T02:19:25;20.00;99.90
22850;DHT22;11591;44.792;10.358;2023-05-07T02:21:51;19.90;99.90
22850;DHT22;11591;44.792;10.358;2023-05-07T02:24:17;19.90;99.90
22850;DHT22;11591;44.792;10.358;2023-05-07T02:26:42;19.90;99.90
22850;DHT22;11591;44.792;10.358;2023-05-07T02:29:08;19.90;99.90
22850;DHT22;11591;44.792;10.358;2023-05-07T02:31:35;19.90;99.90
22850;DHT22;11591;44.792;10.358;2023-05-07T02:34:01;19.90;99.90
22850;DHT22;11591;44.792;10.358;2023-05-07T02:36:27;19.80;99.90
22850;DHT22;11591;44.792;10.358;2023-05-07T02:39:03;19.90;99.90
22850;DHT22;11591;44.792;10.358;2023-05-07T02:41:29;19.70;99.90
22850;DHT22;11591;44.792;10.358;2023-05-07T02:43:54;19.70;99.90
22850;DHT22;11591;44.792;10.358;2023-05-07T02:46:20;19.70;99.90
22850;DHT22;11591;44.792;10.358;2023-05-07T02:48:52;19.80;99.90
22850;DHT22;11591;44.792;10.358;2023-05-07T02:51:20;19.70;99.90
22850;DHT22;11591;44.792;10.358;2023-05-07T02:53:47;19.70;99.90
22850;DHT22;11591;44.792;10.358;2023-05-07T02:56:12;19.60;99.90
22850;DHT22;11591;44.792;10.358;2023-05-07T02:58:38;19.60;99.90
22850;DHT22;11591;44.792;10.358;2023-05-07T03:01:06;19.50;99.90
22850;DHT22;11591;44.792;10.358;2023-05-07T03:03:54;19.40;99.90
22850;DHT22;11591;44.792;10.358;2023-05-07T03:06:21;19.30;99.90
22850;DHT22;11591;44.792;10.358;2023-05-07T03:08:47;19.20;99.90
22850;DHT22;11591;44.792;10.358;2023-05-07T03:11:13;19.10;99.90
22850;DHT22;11591;44.792;10.358;2023-05-07T03:13:40;19.10;99.90
22850;DHT22;11591;44.792;10.358;2023-05-07T03:16:07;19.10;99.90
22850;DHT22;11591;44.792;10.358;2023-05-07T03:18:33;19.10;99.90
22850;DHT22;11591;44.792;10.358;2023-05-07T03:20:59;19.10;99.90
22850;DHT22;11591;44.792;10.358;2023-05-07T03:23:24;19.10;99.90
22850;DHT22;11591;44.792;10.358;2023-05-07T03:25:50;18.90;99.90
22850;DHT22;11591;44.792;10.358;2023-05-07T03:28:17;18.90;99.90
22850;DHT22;11591;44.792;10.358;2023-05-07T03:30:49;18.80;99.90
22850;DHT22;11591;44.792;10.358;2023-05-07T03:33:15;18.60;99.90
22850;DHT22;11591;44.792;10.358;2023-05-07T03:35:41;18.70;99.90
22850;DHT22;11591;44.792;10.358;2023-05-07T03:38:07;18.70;99.90
22850;DHT22;11591;44.792;10.358;2023-05-07T03:40:35;18.70;99.90
22850;DHT22;11591;44.792;10.358;2023-05-07T03:43:02;18.70;99.90
22850;DHT22;11591;44.792;10.358;2023-05-07T03:45:30;18.70;99.90
22850;DHT22;11591;44.792;10.358;2023-05-07T03:48:15;18.60;99.90
22850;DHT22;11591;44.792;10.358;2023-05-07T03:50:41;18.60;99.90
22850;DHT22;11591;44.792;10.358;2023-05-07T03:53:07;18.60;99.90
22850;DHT22;11591;44.792;10.358;2023-05-07T03:55:37;18.60;99.90
22850;DHT22;11591;44.792;10.358;2023-05-07T03:58:04;18.40;99.90
22850;DHT22;11591;44.792;10.358;2023-05-07T04:00:30;18.40;99.90
22850;DHT22;11591;44.792;10.358;2023-05-07T04:02:59;18.40;99.90
22850;DHT22;11591;44.792;10.358;2023-05-07T04:05:28;18.30;99.90
22850;DHT22;11591;44.792;10.358;2023-05-07T04:07:59;18.40;99.90
22850;DHT22;11591;44.792;10.358;2023-05-07T04:10:31;18.30;99.90
22850;DHT22;11591;44.792;10.358;2023-05-07T04:12:59;18.30;99.90
22850;DHT22;11591;44.792;10.358;2023-05-07T04:15:26;18.20;99.90
22850;DHT22;11591;44.792;10.358;2023-05-07T04:17:52;18.20;99.90
22850;DHT22;11591;44.792;10.358;2023-05-07T04:20:20;18.20;99.90
22850;DHT22;11591;44.792;10.358;2023-05-07T04:22:51;18.30;99.90
22850;DHT22;11591;44.792;10.358;2023-05-07T04:25:16;18.30;99.90
22850;DHT22;11591;44.792;10.358;2023-05-07T04:27:42;18.30;99.90
22850;DHT22;11591;44.792;10.358;2023-05-07T04:30:08;18.30;99.90
22850;DHT22;11591;44.792;10.358;2023-05-07T04:32:38;18.30;99.90
22850;DHT22;11591;44.792;10.358;2023-05-07T04:35:05;18.20;99.90
22850;DHT22;11591;44.792;10.358;2023-05-07T04:37:34;18.30;99.90
22850;DHT22;11591;44.792;10.358;2023-05-07T04:40:00;18.20;99.90
22850;DHT22;11591;44.792;10.358;2023-05-07T04:42:26;18.20;99.90
22850;DHT22;11591;44.792;10.358;2023-05-07T04:44:53;18.20;99.90
22850;DHT22;11591;44.792;10.358;2023-05-07T04:47:20;18.10;99.90
22850;DHT22;11591;44.792;10.358;2023-05-07T04:49:46;18.20;99.90
22850;DHT22;11591;44.792;10.358;2023-05-07T04:52:12;18.30;99.90
22850;DHT22;11591;44.792;10.358;2023-05-07T04:54:38;18.40;99.90
22850;DHT22;11591;44.792;10.358;2023-05-07T04:57:05;18.50;99.90
22850;DHT22;11591;44.792;10.358;2023-05-07T04:59:32;18.60;99.90
22850;DHT22;11591;44.792;10.358;2023-05-07T05:01:58;18.70;99.90
22850;DHT22;11591;44.792;10.358;2023-05-07T05:04:24;18.70;99.90
22850;DHT22;11591;44.792;10.358;2023-05-07T05:06:50;18.70;99.90
22850;DHT22;11591;44.792;10.358;2023-05-07T05:09:17;18.70;99.90
22850;DHT22;11591;44.792;10.358;2023-05-07T05:11:43;18.70;99.90
22850;DHT22;11591;44.792;10.358;2023-05-07T05:14:09;18.80;99.90
22850;DHT22;11591;44.792;10.358;2023-05-07T05:16:35;18.70;99.90
22850;DHT22;11591;44.792;10.358;2023-05-07T05:19:02;18.80;99.90
22850;DHT22;11591;44.792;10.358;2023-05-07T05:21:29;18.70;99.90
22850;DHT22;11591;44.792;10.358;2023-05-07T05:24:00;18.60;99.90
22850;DHT22;11591;44.792;10.358;2023-05-07T05:26:27;18.50;99.90
22850;DHT22;11591;44.792;10.358;2023-05-07T05:28:53;18.50;99.90
22850;DHT22;11591;44.792;10.358;2023-05-07T05:31:21;18.30;99.90
22850;DHT22;11591;44.792;10.358;2023-05-07T05:33:49;18.40;99.90
22850;DHT22;11591;44.792;10.358;2023-05-07T05:36:14;18.40;99.90
22850;DHT22;11591;44.792;10.358;2023-05-07T05:38:42;18.50;99.90
22850;DHT22;11591;44.792;10.358;2023-05-07T05:41:10;18.40;99.90
22850;DHT22;11591;44.792;10.358;2023-05-07T05:43:36;18.40;99.90
22850;DHT22;11591;44.792;10.358;2023-05-07T05:46:02;18.40;99.90
22850;DHT22;11591;44.792;10.358;2023-05-07T05:48:30;18.40;99.90
22850;DHT22;11591;44.792;10.358;2023-05-07T05:50:57;18.40;99.90
22850;DHT22;11591;44.792;10.358;2023-05-07T05:53:23;18.50;99.90
22850;DHT22;11591;44.792;10.358;2023-05-07T05:55:49;18.50;99.90
22850;DHT22;11591;44.792;10.358;2023-05-07T05:58:16;18.50;99.90
22850;DHT22;11591;44.792;10.358;2023-05-07T06:00:48;18.50;99.90
22850;DHT22;11591;44.792;10.358;2023-05-07T06:03:18;18.40;99.90
22850;DHT22;11591;44.792;10.358;2023-05-07T06:05:44;18.50;99.90
22850;DHT22;11591;44.792;10.358;2023-05-07T06:08:10;18.50;99.90
22850;DHT22;11591;44.792;10.358;2023-05-07T06:10:37;18.50;99.90
22850;DHT22;11591;44.792;10.358;2023-05-07T06:13:04;18.50;99.90
22850;DHT22;11591;44.792;10.358;2023-05-07T06:15:32;18.50;99.90
22850;DHT22;11591;44.792;10.358;2023-05-07T06:18:03;18.50;99.90
22850;DHT22;11591;44.792;10.358;2023-05-07T06:20:28;18.50;99.90
22850;DHT22;11591;44.792;10.358;2023-05-07T06:22:55;18.60;99.90
22850;DHT22;11591;44.792;10.358;2023-05-07T06:25:21;18.60;99.90
22850;DHT22;11591;44.792;10.358;2023-05-07T06:27:47;18.60;99.90
22850;DHT22;11591;44.792;10.358;2023-05-07T06:30:13;18.50;99.90
22850;DHT22;11591;44.792;10.358;2023-05-07T06:32:40;18.60;99.90
22850;DHT22;11591;44.792;10.358;2023-05-07T06:35:07;18.60;99.90
22850;DHT22;11591;44.792;10.358;2023-05-07T06:37:35;18.70;99.90
22850;DHT22;11591;44.792;10.358;2023-05-07T06:40:05;18.70;99.90
22850;DHT22;11591;44.792;10.358;2023-05-07T06:42:34;18.70;99.90
22850;DHT22;11591;44.792;10.358;2023-05-07T06:45:17;18.70;99.90
22850;DHT22;11591;44.792;10.358;2023-05-07T06:47:43;18.70;99.90
22850;DHT22;11591;44.792;10.358;2023-05-07T06:50:09;18.80;99.90
22850;DHT22;11591;44.792;10.358;2023-05-07T06:52:35;18.80;99.90
22850;DHT22;11591;44.792;10.358;2023-05-07T06:55:02;18.80;99.90
22850;DHT22;11591;44.792;10.358;2023-05-07T06:57:27;18.90;99.90
22850;DHT22;11591;44.792;10.358;2023-05-07T06:59:53;18.90;99.90
22850;DHT22;11591;44.792;10.358;2023-05-07T07:02:20;19.00;99.90
22850;DHT22;11591;44.792;10.358;2023-05-07T07:04:48;18.90;99.90
22850;DHT22;11591;44.792;10.358;2023-05-07T07:07:14;19.00;99.90
22850;DHT22;11591;44.792;10.358;2023-05-07T07:09:42;19.10;99.90
22850;DHT22;11591;44.792;10.358;2023-05-07T07:12:09;19.30;99.90
22850;DHT22;11591;44.792;10.358;2023-05-07T07:14:37;19.30;99.90
22850;DHT22;11591;44.792;10.358;2023-05-07T07:17:03;19.40;99.90
22850;DHT22;11591;44.792;10.358;2023-05-07T07:19:31;19.40;99.90
22850;DHT22;11591;44.792;10.358;2023-05-07T07:21:57;19.50;99.90
22850;DHT22;11591;44.792;10.358;2023-05-07T07:24:23;19.50;99.90
22850;DHT22;11591;44.792;10.358;2023-05-07T07:26:54;19.50;99.90
22850;DHT22;11591;44.792;10.358;2023-05-07T07:29:21;19.60;99.90
22850;DHT22;11591;44.792;10.358;2023-05-07T07:31:48;19.70;99.90
22850;DHT22;11591;44.792;10.358;2023-05-07T07:34:15;19.70;99.90
22850;DHT22;11591;44.792;10.358;2023-05-07T07:36:42;19.70;99.90
22850;DHT22;11591;44.792;10.358;2023-05-07T07:39:08;19.80;99.90
22850;DHT22;11591;44.792;10.358;2023-05-07T07:41:35;19.80;99.90
22850;DHT22;11591;44.792;10.358;2023-05-07T07:44:02;19.90;99.90
22850;DHT22;11591;44.792;10.358;2023-05-07T07:46:29;19.90;99.90
22850;DHT22;11591;44.792;10.358;2023-05-07T07:48:55;19.90;99.90
22850;DHT22;11591;44.792;10.358;2023-05-07T07:51:23;20.00;99.90
22850;DHT22;11591;44.792;10.358;2023-05-07T07:53:50;20.10;99.90
22850;DHT22;11591;44.792;10.358;2023-05-07T07:56:17;20.10;99.90
22850;DHT22;11591;44.792;10.358;2023-05-07T07:58:43;20.20;99.90
22850;DHT22;11591;44.792;10.358;2023-05-07T08:01:09;20.30;99.90
22850;DHT22;11591;44.792;10.358;2023-05-07T08:03:35;20.30;99.90
22850;DHT22;11591;44.792;10.358;2023-05-07T08:06:01;20.40;99.90
22850;DHT22;11591;44.792;10.358;2023-05-07T08:08:28;20.40;99.90
22850;DHT22;11591;44.792;10.358;2023-05-07T08:10:54;20.50;99.90
22850;DHT22;11591;44.792;10.358;2023-05-07T08:13:27;20.60;99.90
22850;DHT22;11591;44.792;10.358;2023-05-07T08:15:53;20.70;99.90
22850;DHT22;11591;44.792;10.358;2023-05-07T08:18:19;20.70;99.90
22850;DHT22;11591;44.792;10.358;2023-05-07T08:20:45;20.80;99.90
22850;DHT22;11591;44.792;10.358;2023-05-07T08:23:15;20.80;99.90
22850;DHT22;11591;44.792;10.358;2023-05-07T08:25:43;20.80;99.90
22850;DHT22;11591;44.792;10.358;2023-05-07T08:28:09;20.90;99.90
22850;DHT22;11591;44.792;10.358;2023-05-07T08:30:36;21.00;99.90
22850;DHT22;11591;44.792;10.358;2023-05-07T08:33:02;21.10;99.90
22850;DHT22;11591;44.792;10.358;2023-05-07T08:35:28;21.10;99.90
22850;DHT22;11591;44.792;10.358;2023-05-07T08:37:54;21.20;99.90
22850;DHT22;11591;44.792;10.358;2023-05-07T08:40:25;21.20;99.90
22850;DHT22;11591;44.792;10.358;2023-05-07T08:42:52;21.30;99.90
22850;DHT22;11591;44.792;10.358;2023-05-07T08:45:19;21.30;99.90
22850;DHT22;11591;44.792;10.358;2023-05-07T08:47:55;21.40;99.90
22850;DHT22;11591;44.792;10.358;2023-05-07T08:50:25;21.40;99.90
22850;DHT22;11591;44.792;10.358;2023-05-07T08:52:51;21.40;99.90
22850;DHT22;11591;44.792;10.358;2023-05-07T08:55:18;21.50;99.90
22850;DHT22;11591;44.792;10.358;2023-05-07T08:57:44;21.50;99.90
22850;DHT22;11591;44.792;10.358;2023-05-07T09:00:12;21.60;99.90
22850;DHT22;11591;44.792;10.358;2023-05-07T09:02:39;21.70;99.90
22850;DHT22;11591;44.792;10.358;2023-05-07T09:05:07;21.70;99.90
22850;DHT22;11591;44.792;10.358;2023-05-07T09:07:34;21.80;99.90
22850;DHT22;11591;44.792;10.358;2023-05-07T09:10:03;21.80;99.90
22850;DHT22;11591;44.792;10.358;2023-05-07T09:12:30;21.90;99.90
22850;DHT22;11591;44.792;10.358;2023-05-07T09:14:57;21.90;99.90
22850;DHT22;11591;44.792;10.358;2023-05-07T09:17:23;21.90;99.90
22850;DHT22;11591;44.792;10.358;2023-05-07T09:19:49;22.00;99.90
22850;DHT22;11591;44.792;10.358;2023-05-07T09:22:16;22.00;99.90
22850;DHT22;11591;44.792;10.358;2023-05-07T09:24:59;22.10;99.90
22850;DHT22;11591;44.792;10.358;2023-05-07T09:27:26;22.10;99.90
22850;DHT22;11591;44.792;10.358;2023-05-07T09:29:54;22.10;99.90
22850;DHT22;11591;44.792;10.358;2023-05-07T09:32:20;22.20;99.90
22850;DHT22;11591;44.792;10.358;2023-05-07T09:34:45;22.30;99.90
22850;DHT22;11591;44.792;10.358;2023-05-07T09:37:14;22.30;99.90
22850;DHT22;11591;44.792;10.358;2023-05-07T09:39:41;22.40;99.90
22850;DHT22;11591;44.792;10.358;2023-05-07T09:42:08;22.40;99.90
22850;DHT22;11591;44.792;10.358;2023-05-07T09:44:35;22.50;99.90
22850;DHT22;11591;44.792;10.358;2023-05-07T09:47:05;22.50;99.90
22850;DHT22;11591;44.792;10.358;2023-05-07T09:49:39;22.60;99.90
22850;DHT22;11591;44.792;10.358;2023-05-07T09:52:09;22.60;99.90
22850;DHT22;11591;44.792;10.358;2023-05-07T09:54:40;22.70;99.90
22850;DHT22;11591;44.792;10.358;2023-05-07T09:57:11;22.70;99.90
22850;DHT22;11591;44.792;10.358;2023-05-07T09:59:41;22.70;99.90
22850;DHT22;11591;44.792;10.358;2023-05-07T10:02:10;22.80;99.90
22850;DHT22;11591;44.792;10.358;2023-05-07T10:04:45;22.80;99.90
22850;DHT22;11591;44.792;10.358;2023-05-07T10:07:13;22.90;99.90
22850;DHT22;11591;44.792;10.358;2023-05-07T10:09:39;22.90;99.90
22850;DHT22;11591;44.792;10.358;2023-05-07T10:12:12;23.00;99.90
22850;DHT22;11591;44.792;10.358;2023-05-07T10:14:39;23.00;99.90
22850;DHT22;11591;44.792;10.358;2023-05-07T10:17:06;23.10;99.90
22850;DHT22;11591;44.792;10.358;2023-05-07T10:19:32;23.10;99.90
22850;DHT22;11591;44.792;10.358;2023-05-07T10:22:04;23.10;99.90
22850;DHT22;11591;44.792;10.358;2023-05-07T10:24:34;23.10;99.90
22850;DHT22;11591;44.792;10.358;2023-05-07T10:27:10;23.10;99.90
22850;DHT22;11591;44.792;10.358;2023-05-07T10:32:14;23.20;99.90
22850;DHT22;11591;44.792;10.358;2023-05-07T10:34:48;23.20;99.90
22850;DHT22;11591;44.792;10.358;2023-05-07T10:37:15;23.30;99.90
22850;DHT22;11591;44.792;10.358;2023-05-07T10:39:41;23.30;99.90
22850;DHT22;11591;44.792;10.358;2023-05-07T10:42:10;23.40;99.90
22850;DHT22;11591;44.792;10.358;2023-05-07T10:44:38;23.40;99.90
22850;DHT22;11591;44.792;10.358;2023-05-07T10:52:33;23.60;99.90
22850;DHT22;11591;44.792;10.358;2023-05-07T10:57:50;23.70;99.90
22850;DHT22;11591;44.792;10.358;2023-05-07T11:05:30;23.80;99.90
22850;DHT22;11591;44.792;10.358;2023-05-07T11:08:25;23.90;99.90
22850;DHT22;11591;44.792;10.358;2023-05-07T11:11:04;23.90;99.90
22850;DHT22;11591;44.792;10.358;2023-05-07T11:13:49;24.00;99.90
22850;DHT22;11591;44.792;10.358;2023-05-07T11:16:36;24.00;99.90
22850;DHT22;11591;44.792;10.358;2023-05-07T11:19:15;24.00;99.90
22850;DHT22;11591;44.792;10.358;2023-05-07T11:21:46;24.00;99.90
22850;DHT22;11591;44.792;10.358;2023-05-07T11:24:40;24.10;99.90
22850;DHT22;11591;44.792;10.358;2023-05-07T11:27:09;24.20;99.90
22850;DHT22;11591;44.792;10.358;2023-05-07T11:29:35;24.30;99.90
22850;DHT22;11591;44.792;10.358;2023-05-07T11:32:06;24.30;99.90
22850;DHT22;11591;44.792;10.358;2023-05-07T11:34:42;24.40;99.90
22850;DHT22;11591;44.792;10.358;2023-05-07T11:37:10;24.50;99.90
22850;DHT22;11591;44.792;10.358;2023-05-07T11:39:44;24.50;99.90
22850;DHT22;11591;44.792;10.358;2023-05-07T11:42:30;24.50;99.90
22850;DHT22;11591;44.792;10.358;2023-05-07T11:44:57;24.50;99.90
22850;DHT22;11591;44.792;10.358;2023-05-07T11:47:22;24.60;99.90
22850;DHT22;11591;44.792;10.358;2023-05-07T11:49:50;24.50;99.90
22850;DHT22;11591;44.792;10.358;2023-05-07T11:52:17;24.50;99.90
22850;DHT22;11591;44.792;10.358;2023-05-07T11:54:54;24.60;99.90
22850;DHT22;11591;44.792;10.358;2023-05-07T11:57:23;24.60;99.90
22850;DHT22;11591;44.792;10.358;2023-05-07T11:59:59;24.60;99.90
22850;DHT22;11591;44.792;10.358;2023-05-07T12:02:28;24.60;99.90
22850;DHT22;11591;44.792;10.358;2023-05-07T12:04:54;24.70;99.90
22850;DHT22;11591;44.792;10.358;2023-05-07T12:07:23;24.80;99.90
22850;DHT22;11591;44.792;10.358;2023-05-07T12:09:50;24.90;99.90
22850;DHT22;11591;44.792;10.358;2023-05-07T12:12:15;25.00;99.90
22850;DHT22;11591;44.792;10.358;2023-05-07T12:14:45;25.00;99.90
22850;DHT22;11591;44.792;10.358;2023-05-07T12:17:13;25.00;99.90
22850;DHT22;11591;44.792;10.358;2023-05-07T12:19:40;25.10;99.90
22850;DHT22;11591;44.792;10.358;2023-05-07T12:22:08;25.10;99.90
22850;DHT22;11591;44.792;10.358;2023-05-07T12:24:57;25.10;99.90
22850;DHT22;11591;44.792;10.358;2023-05-07T12:27:22;25.20;99.90
22850;DHT22;11591;44.792;10.358;2023-05-07T12:29:50;25.20;99.90
22850;DHT22;11591;44.792;10.358;2023-05-07T12:32:22;25.20;99.90
22850;DHT22;11591;44.792;10.358;2023-05-07T12:34:51;25.20;99.90
22850;DHT22;11591;44.792;10.358;2023-05-07T12:37:25;25.20;99.90
22850;DHT22;11591;44.792;10.358;2023-05-07T12:40:05;25.20;99.90
22850;DHT22;11591;44.792;10.358;2023-05-07T12:42:39;25.30;99.90
22850;DHT22;11591;44.792;10.358;2023-05-07T12:45:12;25.40;99.90
22850;DHT22;11591;44.792;10.358;2023-05-07T12:47:38;25.40;99.90
22850;DHT22;11591;44.792;10.358;2023-05-07T12:50:07;25.50;99.90
22850;DHT22;11591;44.792;10.358;2023-05-07T12:52:33;25.50;99.90
22850;DHT22;11591;44.792;10.358;2023-05-07T12:55:05;25.50;99.90
22850;DHT22;11591;44.792;10.358;2023-05-07T12:57:38;25.60;99.90
22850;DHT22;11591;44.792;10.358;2023-05-07T13:00:05;25.70;99.90
22850;DHT22;11591;44.792;10.358;2023-05-07T13:02:34;25.80;99.90
22850;DHT22;11591;44.792;10.358;2023-05-07T13:05:03;25.80;99.90
22850;DHT22;11591;44.792;10.358;2023-05-07T13:07:28;25.90;99.90
22850;DHT22;11591;44.792;10.358;2023-05-07T13:09:54;25.90;99.90
22850;DHT22;11591;44.792;10.358;2023-05-07T13:12:20;26.00;99.90
22850;DHT22;11591;44.792;10.358;2023-05-07T13:14:46;26.10;99.90
22850;DHT22;11591;44.792;10.358;2023-05-07T13:17:11;26.10;99.90
22850;DHT22;11591;44.792;10.358;2023-05-07T13:19:37;26.10;99.90
22850;DHT22;11591;44.792;10.358;2023-05-07T13:22:03;26.20;99.90
22850;DHT22;11591;44.792;10.358;2023-05-07T13:24:29;26.20;99.90
22850;DHT22;11591;44.792;10.358;2023-05-07T13:26:55;26.30;99.90
22850;DHT22;11591;44.792;10.358;2023-05-07T13:29:21;26.30;99.90
22850;DHT22;11591;44.792;10.358;2023-05-07T13:31:54;26.50;99.90
22850;DHT22;11591;44.792;10.358;2023-05-07T13:34:20;26.50;99.90
22850;DHT22;11591;44.792;10.358;2023-05-07T13:36:46;26.50;99.90
22850;DHT22;11591;44.792;10.358;2023-05-07T13:39:12;26.50;99.90
22850;DHT22;11591;44.792;10.358;2023-05-07T13:41:38;26.50;99.90
22850;DHT22;11591;44.792;10.358;2023-05-07T13:44:03;26.50;99.90
22850;DHT22;11591;44.792;10.358;2023-05-07T13:46:29;26.60;99.90
22850;DHT22;11591;44.792;10.358;2023-05-07T13:48:56;26.60;99.90
22850;DHT22;11591;44.792;10.358;2023-05-07T13:51:22;26.70;99.90
22850;DHT22;11591;44.792;10.358;2023-05-07T13:53:47;26.70;99.90
22850;DHT22;11591;44.792;10.358;2023-05-07T13:56:14;26.80;99.90
22850;DHT22;11591;44.792;10.358;2023-05-07T13:58:40;26.80;99.90
22850;DHT22;11591;44.792;10.358;2023-05-07T14:01:06;26.80;99.90
22850;DHT22;11591;44.792;10.358;2023-05-07T14:03:32;26.80;99.90
22850;DHT22;11591;44.792;10.358;2023-05-07T14:05:59;26.90;99.90
22850;DHT22;11591;44.792;10.358;2023-05-07T14:08:27;27.00;99.90
22850;DHT22;11591;44.792;10.358;2023-05-07T14:10:53;27.10;99.90
22850;DHT22;11591;44.792;10.358;2023-05-07T14:13:19;27.20;99.90
22850;DHT22;11591;44.792;10.358;2023-05-07T14:15:45;27.30;99.90
22850;DHT22;11591;44.792;10.358;2023-05-07T14:18:15;27.40;99.90
22850;DHT22;11591;44.792;10.358;2023-05-07T14:20:41;27.70;99.90
22850;DHT22;11591;44.792;10.358;2023-05-07T14:23:12;28.10;99.90
22850;DHT22;11591;44.792;10.358;2023-05-07T14:25:38;28.70;99.90
22850;DHT22;11591;44.792;10.358;2023-05-07T14:28:04;29.20;99.90
22850;DHT22;11591;44.792;10.358;2023-05-07T14:30:30;29.70;99.90
22850;DHT22;11591;44.792;10.358;2023-05-07T14:32:55;30.30;99.90
22850;DHT22;11591;44.792;10.358;2023-05-07T14:35:21;30.80;99.90
22850;DHT22;11591;44.792;10.358;2023-05-07T14:37:47;31.10;99.90
22850;DHT22;11591;44.792;10.358;2023-05-07T14:40:13;31.40;99.90
22850;DHT22;11591;44.792;10.358;2023-05-07T14:42:40;31.60;99.90
22850;DHT22;11591;44.792;10.358;2023-05-07T14:45:06;31.50;99.90
22850;DHT22;11591;44.792;10.358;2023-05-07T14:47:32;31.20;99.90
22850;DHT22;11591;44.792;10.358;2023-05-07T14:49:58;31.10;99.90
22850;DHT22;11591;44.792;10.358;2023-05-07T14:52:26;31.00;99.90
22850;DHT22;11591;44.792;10.358;2023-05-07T14:54:52;31.00;99.90
22850;DHT22;11591;44.792;10.358;2023-05-07T14:57:18;31.20;99.90
22850;DHT22;11591;44.792;10.358;2023-05-07T14:59:45;31.40;99.90
22850;DHT22;11591;44.792;10.358;2023-05-07T15:02:11;31.40;99.90
22850;DHT22;11591;44.792;10.358;2023-05-07T15:05:01;31.30;99.90
22850;DHT22;11591;44.792;10.358;2023-05-07T15:07:30;31.30;99.90
22850;DHT22;11591;44.792;10.358;2023-05-07T15:09:58;31.30;99.90
22850;DHT22;11591;44.792;10.358;2023-05-07T15:12:23;31.20;99.90
22850;DHT22;11591;44.792;10.358;2023-05-07T15:14:49;31.30;99.90
22850;DHT22;11591;44.792;10.358;2023-05-07T15:17:15;31.10;99.90
22850;DHT22;11591;44.792;10.358;2023-05-07T15:19:40;30.90;99.90
22850;DHT22;11591;44.792;10.358;2023-05-07T15:22:06;30.80;99.90
22850;DHT22;11591;44.792;10.358;2023-05-07T15:24:32;30.80;99.90
22850;DHT22;11591;44.792;10.358;2023-05-07T15:26:58;30.80;99.90
22850;DHT22;11591;44.792;10.358;2023-05-07T15:29:24;30.90;99.90
22850;DHT22;11591;44.792;10.358;2023-05-07T15:31:50;31.10;99.90
22850;DHT22;11591;44.792;10.358;2023-05-07T15:34:17;31.20;99.90
22850;DHT22;11591;44.792;10.358;2023-05-07T15:36:43;31.30;99.90